METAR Data
IDs: Format: Raw Decoded Include TAF

Data at: 1957 UTC 26 Sep 2021

METAR for:KAQX (Allendale Cnty Arpt, SC, US)
Text:KAQX 261955Z AUTO 00000KT 10SM CLR 28/14 A3005 RMK AO2
Temperature: 28.0°C ( 82°F)
Dewpoint: 14.0°C ( 57°F) [RH = 42%]
Pressure (altimeter):30.05 inches Hg (1017.7 mb)
Winds:calm
Visibility:10 or more sm (16+ km)
Ceiling:at least 12,000 feet AGL
Clouds:sky clear below 12,000 feet AGL
QC Flag:automated observation with no human augmentation

TAF for:KAQX (Allendale Cnty Arpt, SC, US)
Text:No data found